sensor_id;sensor_type;location;lat;lon;timestamp;P1;durP1;ratioP1;P2;durP2;ratioP2
31674;SDS011;18276;45.520;11.018;2022-10-16T00:00:57;83.05;;;39.95;;
31674;SDS011;18276;45.520;11.018;2022-10-16T00:03:24;86.80;;;42.95;;
31674;SDS011;18276;45.520;11.018;2022-10-16T00:05:58;83.47;;;40.55;;
31674;SDS011;18276;45.520;11.018;2022-10-16T00:08:27;80.93;;;38.53;;
31674;SDS011;18276;45.520;11.018;2022-10-16T00:11:01;81.65;;;41.97;;
31674;SDS011;18276;45.520;11.018;2022-10-16T00:13:30;80.72;;;41.28;;
31674;SDS011;18276;45.520;11.018;2022-10-16T00:15:58;81.50;;;41.05;;
31674;SDS011;18276;45.520;11.018;2022-10-16T00:18:26;83.15;;;43.03;;
31674;SDS011;18276;45.520;11.018;2022-10-16T00:20:53;83.55;;;41.38;;
31674;SDS011;18276;45.520;11.018;2022-10-16T00:23:25;82.25;;;42.65;;
31674;SDS011;18276;45.520;11.018;2022-10-16T00:25:59;82.90;;;42.53;;
31674;SDS011;18276;45.520;11.018;2022-10-16T00:28:28;83.45;;;43.40;;
31674;SDS011;18276;45.520;11.018;2022-10-16T00:30:56;85.88;;;44.13;;
31674;SDS011;18276;45.520;11.018;2022-10-16T00:33:24;86.20;;;43.45;;
31674;SDS011;18276;45.520;11.018;2022-10-16T00:35:52;89.35;;;43.72;;
31674;SDS011;18276;45.520;11.018;2022-10-16T00:38:19;81.38;;;40.22;;
31674;SDS011;18276;45.520;11.018;2022-10-16T00:40:46;87.78;;;43.63;;
31674;SDS011;18276;45.520;11.018;2022-10-16T00:43:14;86.22;;;42.47;;
31674;SDS011;18276;45.520;11.018;2022-10-16T00:46:00;87.60;;;42.60;;
31674;SDS011;18276;45.520;11.018;2022-10-16T00:48:29;91.10;;;41.35;;
31674;SDS011;18276;45.520;11.018;2022-10-16T00:50:57;92.38;;;44.30;;
31674;SDS011;18276;45.520;11.018;2022-10-16T00:53:25;82.50;;;42.90;;
31674;SDS011;18276;45.520;11.018;2022-10-16T00:55:53;81.93;;;40.90;;
31674;SDS011;18276;45.520;11.018;2022-10-16T00:58:21;82.82;;;41.58;;
31674;SDS011;18276;45.520;11.018;2022-10-16T01:00:48;90.85;;;44.28;;
31674;SDS011;18276;45.520;11.018;2022-10-16T01:03:26;85.25;;;42.22;;
31674;SDS011;18276;45.520;11.018;2022-10-16T01:06:07;87.10;;;43.85;;
31674;SDS011;18276;45.520;11.018;2022-10-16T01:09:02;80.75;;;42.05;;
31674;SDS011;18276;45.520;11.018;2022-10-16T01:11:49;85.75;;;43.20;;
31674;SDS011;18276;45.520;11.018;2022-10-16T01:14:26;88.28;;;43.25;;
31674;SDS011;18276;45.520;11.018;2022-10-16T01:16:57;80.10;;;41.83;;
31674;SDS011;18276;45.520;11.018;2022-10-16T01:19:44;84.32;;;44.00;;
31674;SDS011;18276;45.520;11.018;2022-10-16T01:25:29;87.20;;;42.85;;
31674;SDS011;18276;45.520;11.018;2022-10-16T01:28:17;88.88;;;42.72;;
31674;SDS011;18276;45.520;11.018;2022-10-16T01:30:48;91.30;;;42.78;;
31674;SDS011;18276;45.520;11.018;2022-10-16T01:33:20;77.18;;;40.38;;
31674;SDS011;18276;45.520;11.018;2022-10-16T01:35:54;85.07;;;43.67;;
31674;SDS011;18276;45.520;11.018;2022-10-16T01:38:36;89.10;;;43.35;;
31674;SDS011;18276;45.520;11.018;2022-10-16T01:41:09;86.07;;;41.05;;
31674;SDS011;18276;45.520;11.018;2022-10-16T01:43:48;88.78;;;43.08;;
31674;SDS011;18276;45.520;11.018;2022-10-16T01:46:27;84.67;;;41.70;;
31674;SDS011;18276;45.520;11.018;2022-10-16T01:48:57;88.78;;;42.33;;
31674;SDS011;18276;45.520;11.018;2022-10-16T01:51:25;88.53;;;43.65;;
31674;SDS011;18276;45.520;11.018;2022-10-16T01:53:54;89.63;;;42.70;;
31674;SDS011;18276;45.520;11.018;2022-10-16T01:56:24;89.10;;;43.83;;
31674;SDS011;18276;45.520;11.018;2022-10-16T01:58:54;86.25;;;43.97;;
31674;SDS011;18276;45.520;11.018;2022-10-16T02:01:24;90.13;;;44.38;;
31674;SDS011;18276;45.520;11.018;2022-10-16T02:03:55;80.10;;;42.58;;
31674;SDS011;18276;45.520;11.018;2022-10-16T02:06:25;84.47;;;42.72;;
31674;SDS011;18276;45.520;11.018;2022-10-16T02:08:53;85.53;;;42.08;;
31674;SDS011;18276;45.520;11.018;2022-10-16T02:11:20;94.07;;;44.35;;
31674;SDS011;18276;45.520;11.018;2022-10-16T02:13:52;82.03;;;40.72;;
31674;SDS011;18276;45.520;11.018;2022-10-16T02:16:36;76.28;;;38.92;;
31674;SDS011;18276;45.520;11.018;2022-10-16T02:19:11;94.07;;;42.90;;
31674;SDS011;18276;45.520;11.018;2022-10-16T02:21:43;89.50;;;43.20;;
31674;SDS011;18276;45.520;11.018;2022-10-16T02:24:32;91.85;;;41.58;;
31674;SDS011;18276;45.520;11.018;2022-10-16T02:27:26;82.78;;;41.78;;
31674;SDS011;18276;45.520;11.018;2022-10-16T02:29:58;82.57;;;41.45;;
31674;SDS011;18276;45.520;11.018;2022-10-16T02:32:34;82.65;;;42.13;;
31674;SDS011;18276;45.520;11.018;2022-10-16T02:35:05;85.75;;;41.88;;
31674;SDS011;18276;45.520;11.018;2022-10-16T02:37:33;82.70;;;42.10;;
31674;SDS011;18276;45.520;11.018;2022-10-16T02:40:00;85.22;;;42.50;;
31674;SDS011;18276;45.520;11.018;2022-10-16T02:42:31;85.70;;;42.75;;
31674;SDS011;18276;45.520;11.018;2022-10-16T02:45:01;82.22;;;42.72;;
31674;SDS011;18276;45.520;11.018;2022-10-16T02:47:28;82.75;;;42.60;;
31674;SDS011;18276;45.520;11.018;2022-10-16T02:49:55;78.30;;;40.55;;
31674;SDS011;18276;45.520;11.018;2022-10-16T02:52:23;98.15;;;43.55;;
31674;SDS011;18276;45.520;11.018;2022-10-16T02:54:50;80.53;;;40.85;;
31674;SDS011;18276;45.520;11.018;2022-10-16T02:57:18;85.30;;;41.50;;
31674;SDS011;18276;45.520;11.018;2022-10-16T02:59:45;80.20;;;41.53;;
31674;SDS011;18276;45.520;11.018;2022-10-16T03:02:12;85.93;;;42.47;;
31674;SDS011;18276;45.520;11.018;2022-10-16T03:04:39;79.47;;;42.53;;
31674;SDS011;18276;45.520;11.018;2022-10-16T03:07:06;82.82;;;42.75;;
31674;SDS011;18276;45.520;11.018;2022-10-16T03:09:34;85.10;;;43.90;;
31674;SDS011;18276;45.520;11.018;2022-10-16T03:12:01;92.68;;;43.47;;
31674;SDS011;18276;45.520;11.018;2022-10-16T03:14:28;92.88;;;44.35;;
31674;SDS011;18276;45.520;11.018;2022-10-16T03:16:55;92.65;;;43.50;;
31674;SDS011;18276;45.520;11.018;2022-10-16T03:19:22;90.18;;;44.58;;
31674;SDS011;18276;45.520;11.018;2022-10-16T03:21:49;94.05;;;44.47;;
31674;SDS011;18276;45.520;11.018;2022-10-16T03:24:16;87.78;;;43.28;;
31674;SDS011;18276;45.520;11.018;2022-10-16T03:26:44;85.78;;;44.20;;
31674;SDS011;18276;45.520;11.018;2022-10-16T03:29:11;89.35;;;44.75;;
31674;SDS011;18276;45.520;11.018;2022-10-16T03:31:38;96.82;;;47.40;;
31674;SDS011;18276;45.520;11.018;2022-10-16T03:34:05;101.13;;;46.45;;
31674;SDS011;18276;45.520;11.018;2022-10-16T03:36:32;91.75;;;46.63;;
31674;SDS011;18276;45.520;11.018;2022-10-16T03:38:59;96.82;;;44.97;;
31674;SDS011;18276;45.520;11.018;2022-10-16T03:41:26;93.47;;;46.55;;
31674;SDS011;18276;45.520;11.018;2022-10-16T03:43:53;85.57;;;45.30;;
31674;SDS011;18276;45.520;11.018;2022-10-16T03:46:20;95.63;;;46.22;;
31674;SDS011;18276;45.520;11.018;2022-10-16T03:48:47;92.68;;;46.80;;
31674;SDS011;18276;45.520;11.018;2022-10-16T03:51:14;92.75;;;46.45;;
31674;SDS011;18276;45.520;11.018;2022-10-16T03:53:41;94.03;;;46.42;;
31674;SDS011;18276;45.520;11.018;2022-10-16T03:56:08;97.90;;;49.00;;
31674;SDS011;18276;45.520;11.018;2022-10-16T03:58:35;92.90;;;47.45;;
31674;SDS011;18276;45.520;11.018;2022-10-16T04:01:02;110.22;;;48.50;;
31674;SDS011;18276;45.520;11.018;2022-10-16T04:03:30;93.20;;;46.70;;
31674;SDS011;18276;45.520;11.018;2022-10-16T04:05:56;108.10;;;49.72;;
31674;SDS011;18276;45.520;11.018;2022-10-16T04:08:23;102.07;;;47.80;;
31674;SDS011;18276;45.520;11.018;2022-10-16T04:10:50;102.88;;;48.50;;
31674;SDS011;18276;45.520;11.018;2022-10-16T04:13:18;102.80;;;49.78;;
31674;SDS011;18276;45.520;11.018;2022-10-16T04:15:49;99.18;;;48.45;;
31674;SDS011;18276;45.520;11.018;2022-10-16T04:18:16;100.05;;;48.78;;
31674;SDS011;18276;45.520;11.018;2022-10-16T04:20:43;103.00;;;48.90;;
31674;SDS011;18276;45.520;11.018;2022-10-16T04:23:11;109.03;;;49.30;;
31674;SDS011;18276;45.520;11.018;2022-10-16T04:25:38;101.93;;;48.58;;
31674;SDS011;18276;45.520;11.018;2022-10-16T04:28:05;109.82;;;49.67;;
31674;SDS011;18276;45.520;11.018;2022-10-16T04:30:32;106.20;;;48.10;;
31674;SDS011;18276;45.520;11.018;2022-10-16T04:33:00;99.55;;;48.13;;
31674;SDS011;18276;45.520;11.018;2022-10-16T04:35:31;107.82;;;50.70;;
31674;SDS011;18276;45.520;11.018;2022-10-16T04:37:58;96.15;;;47.20;;
31674;SDS011;18276;45.520;11.018;2022-10-16T04:40:25;109.95;;;50.13;;
31674;SDS011;18276;45.520;11.018;2022-10-16T04:42:52;101.50;;;49.25;;
31674;SDS011;18276;45.520;11.018;2022-10-16T04:45:19;109.35;;;50.10;;
31674;SDS011;18276;45.520;11.018;2022-10-16T04:47:47;110.25;;;49.05;;
31674;SDS011;18276;45.520;11.018;2022-10-16T04:50:14;103.40;;;48.13;;
31674;SDS011;18276;45.520;11.018;2022-10-16T04:52:59;103.32;;;49.83;;
31674;SDS011;18276;45.520;11.018;2022-10-16T04:55:26;103.47;;;48.55;;
31674;SDS011;18276;45.520;11.018;2022-10-16T04:57:53;97.82;;;48.05;;
31674;SDS011;18276;45.520;11.018;2022-10-16T05:00:21;100.07;;;47.92;;
31674;SDS011;18276;45.520;11.018;2022-10-16T05:02:51;93.97;;;46.75;;
31674;SDS011;18276;45.520;11.018;2022-10-16T05:05:19;100.82;;;48.20;;
31674;SDS011;18276;45.520;11.018;2022-10-16T05:07:49;100.25;;;46.65;;
31674;SDS011;18276;45.520;11.018;2022-10-16T05:10:16;98.22;;;46.08;;
31674;SDS011;18276;45.520;11.018;2022-10-16T05:12:43;97.10;;;46.75;;
31674;SDS011;18276;45.520;11.018;2022-10-16T05:15:10;99.00;;;46.53;;
31674;SDS011;18276;45.520;11.018;2022-10-16T05:17:37;100.60;;;46.47;;
31674;SDS011;18276;45.520;11.018;2022-10-16T05:20:10;95.68;;;46.90;;
31674;SDS011;18276;45.520;11.018;2022-10-16T05:22:38;104.55;;;47.33;;
31674;SDS011;18276;45.520;11.018;2022-10-16T05:25:05;94.78;;;46.15;;
31674;SDS011;18276;45.520;11.018;2022-10-16T05:27:32;91.80;;;46.50;;
31674;SDS011;18276;45.520;11.018;2022-10-16T05:29:59;102.65;;;47.28;;
31674;SDS011;18276;45.520;11.018;2022-10-16T05:32:26;92.00;;;45.22;;
31674;SDS011;18276;45.520;11.018;2022-10-16T05:34:53;92.53;;;45.60;;
31674;SDS011;18276;45.520;11.018;2022-10-16T05:37:20;84.30;;;41.72;;
31674;SDS011;18276;45.520;11.018;2022-10-16T05:39:47;94.82;;;46.53;;
31674;SDS011;18276;45.520;11.018;2022-10-16T05:42:14;92.28;;;45.40;;
31674;SDS011;18276;45.520;11.018;2022-10-16T05:44:41;92.43;;;44.17;;
31674;SDS011;18276;45.520;11.018;2022-10-16T05:47:08;95.50;;;45.95;;
31674;SDS011;18276;45.520;11.018;2022-10-16T05:49:37;100.30;;;47.03;;
31674;SDS011;18276;45.520;11.018;2022-10-16T05:52:06;94.88;;;45.25;;
31674;SDS011;18276;45.520;11.018;2022-10-16T05:54:34;88.97;;;44.10;;
31674;SDS011;18276;45.520;11.018;2022-10-16T05:57:01;92.22;;;44.53;;
31674;SDS011;18276;45.520;11.018;2022-10-16T05:59:28;94.97;;;45.63;;
31674;SDS011;18276;45.520;11.018;2022-10-16T06:01:55;90.57;;;44.10;;
31674;SDS011;18276;45.520;11.018;2022-10-16T06:04:22;88.93;;;44.13;;
31674;SDS011;18276;45.520;11.018;2022-10-16T06:06:50;96.20;;;43.58;;
31674;SDS011;18276;45.520;11.018;2022-10-16T06:09:17;90.20;;;42.50;;
31674;SDS011;18276;45.520;11.018;2022-10-16T06:11:44;92.70;;;44.60;;
31674;SDS011;18276;45.520;11.018;2022-10-16T06:14:11;85.95;;;43.75;;
31674;SDS011;18276;45.520;11.018;2022-10-16T06:16:38;91.78;;;44.88;;
31674;SDS011;18276;45.520;11.018;2022-10-16T06:19:05;81.70;;;43.25;;
31674;SDS011;18276;45.520;11.018;2022-10-16T06:21:34;89.45;;;43.92;;
31674;SDS011;18276;45.520;11.018;2022-10-16T06:24:02;86.38;;;43.78;;
31674;SDS011;18276;45.520;11.018;2022-10-16T06:26:30;96.13;;;44.05;;
31674;SDS011;18276;45.520;11.018;2022-10-16T06:28:58;84.72;;;42.20;;
31674;SDS011;18276;45.520;11.018;2022-10-16T06:31:26;94.35;;;43.55;;
31674;SDS011;18276;45.520;11.018;2022-10-16T06:33:57;85.55;;;41.97;;
31674;SDS011;18276;45.520;11.018;2022-10-16T06:36:25;85.32;;;42.88;;
31674;SDS011;18276;45.520;11.018;2022-10-16T06:38:53;84.20;;;44.10;;
31674;SDS011;18276;45.520;11.018;2022-10-16T06:41:21;86.18;;;43.58;;
31674;SDS011;18276;45.520;11.018;2022-10-16T06:43:49;88.38;;;44.30;;
31674;SDS011;18276;45.520;11.018;2022-10-16T06:46:17;90.68;;;45.42;;
31674;SDS011;18276;45.520;11.018;2022-10-16T06:48:46;85.07;;;43.10;;
31674;SDS011;18276;45.520;11.018;2022-10-16T06:51:14;85.53;;;41.22;;
31674;SDS011;18276;45.520;11.018;2022-10-16T06:53:47;85.40;;;41.43;;
31674;SDS011;18276;45.520;11.018;2022-10-16T06:58:58;86.30;;;43.00;;
31674;SDS011;18276;45.520;11.018;2022-10-16T07:01:26;89.32;;;43.42;;
31674;SDS011;18276;45.520;11.018;2022-10-16T07:03:53;94.90;;;48.22;;
31674;SDS011;18276;45.520;11.018;2022-10-16T07:06:21;94.43;;;45.72;;
31674;SDS011;18276;45.520;11.018;2022-10-16T07:08:49;95.40;;;46.00;;
31674;SDS011;18276;45.520;11.018;2022-10-16T07:11:17;85.03;;;45.15;;
31674;SDS011;18276;45.520;11.018;2022-10-16T07:13:46;91.45;;;43.85;;
31674;SDS011;18276;45.520;11.018;2022-10-16T07:16:28;83.75;;;43.88;;
31674;SDS011;18276;45.520;11.018;2022-10-16T07:18:57;84.75;;;44.00;;
31674;SDS011;18276;45.520;11.018;2022-10-16T07:21:27;78.75;;;43.80;;
31674;SDS011;18276;45.520;11.018;2022-10-16T07:23:57;80.65;;;42.72;;
31674;SDS011;18276;45.520;11.018;2022-10-16T07:26:25;82.75;;;42.58;;
31674;SDS011;18276;45.520;11.018;2022-10-16T07:28:54;77.13;;;42.38;;
31674;SDS011;18276;45.520;11.018;2022-10-16T07:31:23;82.32;;;42.33;;
31674;SDS011;18276;45.520;11.018;2022-10-16T07:33:50;88.60;;;43.22;;
31674;SDS011;18276;45.520;11.018;2022-10-16T07:36:18;87.20;;;43.60;;
31674;SDS011;18276;45.520;11.018;2022-10-16T07:38:47;83.40;;;43.25;;
31674;SDS011;18276;45.520;11.018;2022-10-16T07:41:15;87.40;;;42.80;;
31674;SDS011;18276;45.520;11.018;2022-10-16T07:43:47;83.97;;;43.00;;
31674;SDS011;18276;45.520;11.018;2022-10-16T07:46:15;88.38;;;44.05;;
31674;SDS011;18276;45.520;11.018;2022-10-16T07:48:44;77.70;;;42.67;;
31674;SDS011;18276;45.520;11.018;2022-10-16T07:51:15;87.28;;;42.78;;
31674;SDS011;18276;45.520;11.018;2022-10-16T07:53:47;78.40;;;43.20;;
31674;SDS011;18276;45.520;11.018;2022-10-16T07:56:15;91.10;;;44.28;;
31674;SDS011;18276;45.520;11.018;2022-10-16T07:58:42;89.88;;;45.20;;
31674;SDS011;18276;45.520;11.018;2022-10-16T08:01:10;84.75;;;42.80;;
31674;SDS011;18276;45.520;11.018;2022-10-16T08:03:43;87.07;;;46.58;;
31674;SDS011;18276;45.520;11.018;2022-10-16T08:06:11;84.03;;;44.72;;
31674;SDS011;18276;45.520;11.018;2022-10-16T08:08:38;80.78;;;44.45;;
31674;SDS011;18276;45.520;11.018;2022-10-16T08:11:06;87.68;;;43.60;;
31674;SDS011;18276;45.520;11.018;2022-10-16T08:13:33;85.03;;;42.97;;
31674;SDS011;18276;45.520;11.018;2022-10-16T08:16:00;78.75;;;45.15;;
31674;SDS011;18276;45.520;11.018;2022-10-16T08:18:27;81.40;;;46.67;;
31674;SDS011;18276;45.520;11.018;2022-10-16T08:20:58;78.47;;;46.03;;
31674;SDS011;18276;45.520;11.018;2022-10-16T08:23:26;78.85;;;44.75;;
31674;SDS011;18276;45.520;11.018;2022-10-16T08:25:54;79.18;;;44.95;;
31674;SDS011;18276;45.520;11.018;2022-10-16T08:28:23;78.82;;;45.35;;
31674;SDS011;18276;45.520;11.018;2022-10-16T08:30:50;80.50;;;44.65;;
31674;SDS011;18276;45.520;11.018;2022-10-16T08:33:17;76.20;;;44.28;;
31674;SDS011;18276;45.520;11.018;2022-10-16T08:35:53;78.22;;;43.83;;
31674;SDS011;18276;45.520;11.018;2022-10-16T08:38:20;71.68;;;44.17;;
31674;SDS011;18276;45.520;11.018;2022-10-16T08:40:48;79.70;;;45.50;;
31674;SDS011;18276;45.520;11.018;2022-10-16T08:48:43;77.55;;;44.40;;
31674;SDS011;18276;45.520;11.018;2022-10-16T08:51:18;73.80;;;44.55;;
31674;SDS011;18276;45.520;11.018;2022-10-16T08:53:51;74.60;;;43.83;;
31674;SDS011;18276;45.520;11.018;2022-10-16T08:56:45;70.47;;;43.70;;
31674;SDS011;18276;45.520;11.018;2022-10-16T08:59:12;81.18;;;46.95;;
31674;SDS011;18276;45.520;11.018;2022-10-16T09:01:45;76.03;;;46.30;;
31674;SDS011;18276;45.520;11.018;2022-10-16T09:06:57;74.25;;;46.13;;
31674;SDS011;18276;45.520;11.018;2022-10-16T09:09:34;77.80;;;44.80;;
31674;SDS011;18276;45.520;11.018;2022-10-16T09:23:12;75.82;;;47.53;;
31674;SDS011;18276;45.520;11.018;2022-10-16T09:25:46;84.65;;;50.45;;
31674;SDS011;18276;45.520;11.018;2022-10-16T09:28:16;74.28;;;46.30;;
31674;SDS011;18276;45.520;11.018;2022-10-16T09:30:45;75.38;;;46.83;;
31674;SDS011;18276;45.520;11.018;2022-10-16T09:33:15;74.80;;;47.60;;
31674;SDS011;18276;45.520;11.018;2022-10-16T09:35:45;75.90;;;48.03;;
31674;SDS011;18276;45.520;11.018;2022-10-16T09:38:25;77.40;;;48.67;;
31674;SDS011;18276;45.520;11.018;2022-10-16T09:40:57;72.75;;;47.22;;
31674;SDS011;18276;45.520;11.018;2022-10-16T09:43:34;84.07;;;48.72;;
31674;SDS011;18276;45.520;11.018;2022-10-16T09:49:24;74.35;;;47.55;;
31674;SDS011;18276;45.520;11.018;2022-10-16T09:54:37;83.28;;;46.92;;
31674;SDS011;18276;45.520;11.018;2022-10-16T09:57:15;80.75;;;47.58;;
31674;SDS011;18276;45.520;11.018;2022-10-16T09:59:45;77.00;;;48.80;;
31674;SDS011;18276;45.520;11.018;2022-10-16T10:02:14;75.53;;;47.80;;
31674;SDS011;18276;45.520;11.018;2022-10-16T10:04:50;82.15;;;49.38;;
31674;SDS011;18276;45.520;11.018;2022-10-16T10:07:43;73.82;;;45.92;;
31674;SDS011;18276;45.520;11.018;2022-10-16T10:10:22;72.82;;;47.03;;
31674;SDS011;18276;45.520;11.018;2022-10-16T10:12:51;77.93;;;48.05;;
31674;SDS011;18276;45.520;11.018;2022-10-16T10:15:19;76.07;;;47.50;;
31674;SDS011;18276;45.520;11.018;2022-10-16T10:17:49;74.95;;;49.15;;
31674;SDS011;18276;45.520;11.018;2022-10-16T10:20:23;79.43;;;48.53;;
31674;SDS011;18276;45.520;11.018;2022-10-16T10:22:50;80.23;;;49.10;;
31674;SDS011;18276;45.520;11.018;2022-10-16T10:25:35;73.32;;;48.20;;
31674;SDS011;18276;45.520;11.018;2022-10-16T10:30:47;76.55;;;48.97;;
31674;SDS011;18276;45.520;11.018;2022-10-16T10:39:25;81.25;;;48.97;;
31674;SDS011;18276;45.520;11.018;2022-10-16T10:42:06;94.40;;;50.28;;
31674;SDS011;18276;45.520;11.018;2022-10-16T10:50:33;79.47;;;49.80;;
31674;SDS011;18276;45.520;11.018;2022-10-16T10:53:10;78.45;;;51.00;;
31674;SDS011;18276;45.520;11.018;2022-10-16T10:55:45;78.65;;;50.75;;
31674;SDS011;18276;45.520;11.018;2022-10-16T10:58:48;77.85;;;49.22;;
31674;SDS011;18276;45.520;11.018;2022-10-16T11:01:50;80.88;;;49.28;;
31674;SDS011;18276;45.520;11.018;2022-10-16T11:07:00;81.95;;;52.30;;
31674;SDS011;18276;45.520;11.018;2022-10-16T11:09:32;75.70;;;49.78;;
31674;SDS011;18276;45.520;11.018;2022-10-16T11:17:55;78.68;;;49.00;;
31674;SDS011;18276;45.520;11.018;2022-10-16T11:20:32;78.70;;;49.75;;
31674;SDS011;18276;45.520;11.018;2022-10-16T11:26:00;81.25;;;49.47;;
31674;SDS011;18276;45.520;11.018;2022-10-16T11:31:08;76.20;;;47.45;;
31674;SDS011;18276;45.520;11.018;2022-10-16T11:33:52;79.00;;;50.53;;
31674;SDS011;18276;45.520;11.018;2022-10-16T11:53:21;77.38;;;46.35;;
31674;SDS011;18276;45.520;11.018;2022-10-16T11:55:50;70.07;;;46.10;;
31674;SDS011;18276;45.520;11.018;2022-10-16T11:58:35;80.70;;;50.38;;
31674;SDS011;18276;45.520;11.018;2022-10-16T12:08:58;71.05;;;46.58;;
31674;SDS011;18276;45.520;11.018;2022-10-16T12:11:37;68.93;;;45.97;;
31674;SDS011;18276;45.520;11.018;2022-10-16T12:16:38;68.97;;;44.72;;
31674;SDS011;18276;45.520;11.018;2022-10-16T12:19:29;71.53;;;46.03;;
31674;SDS011;18276;45.520;11.018;2022-10-16T12:21:57;66.90;;;44.40;;
31674;SDS011;18276;45.520;11.018;2022-10-16T12:24:31;71.53;;;46.13;;
31674;SDS011;18276;45.520;11.018;2022-10-16T12:27:04;65.70;;;46.00;;
31674;SDS011;18276;45.520;11.018;2022-10-16T12:29:37;67.38;;;41.85;;
31674;SDS011;18276;45.520;11.018;2022-10-16T12:32:24;67.07;;;43.72;;
31674;SDS011;18276;45.520;11.018;2022-10-16T12:35:20;66.65;;;44.20;;
31674;SDS011;18276;45.520;11.018;2022-10-16T12:37:49;61.67;;;43.08;;
31674;SDS011;18276;45.520;11.018;2022-10-16T12:40:30;66.30;;;44.15;;
31674;SDS011;18276;45.520;11.018;2022-10-16T12:43:10;68.87;;;44.27;;
31674;SDS011;18276;45.520;11.018;2022-10-16T12:45:59;61.90;;;41.88;;
31674;SDS011;18276;45.520;11.018;2022-10-16T12:48:31;67.40;;;45.15;;
31674;SDS011;18276;45.520;11.018;2022-10-16T12:51:22;61.85;;;41.20;;
31674;SDS011;18276;45.520;11.018;2022-10-16T12:53:59;71.60;;;44.30;;
31674;SDS011;18276;45.520;11.018;2022-10-16T13:05:02;67.78;;;43.03;;
31674;SDS011;18276;45.520;11.018;2022-10-16T13:27:34;68.55;;;42.00;;
31674;SDS011;18276;45.520;11.018;2022-10-16T13:30:11;70.25;;;41.03;;
31674;SDS011;18276;45.520;11.018;2022-10-16T13:32:47;63.05;;;41.03;;
31674;SDS011;18276;45.520;11.018;2022-10-16T13:35:27;67.03;;;41.00;;
31674;SDS011;18276;45.520;11.018;2022-10-16T13:41:01;71.63;;;42.17;;
31674;SDS011;18276;45.520;11.018;2022-10-16T13:45:59;65.82;;;40.55;;
31674;SDS011;18276;45.520;11.018;2022-10-16T13:48:30;66.35;;;39.35;;
31674;SDS011;18276;45.520;11.018;2022-10-16T13:51:20;68.85;;;39.60;;
31674;SDS011;18276;45.520;11.018;2022-10-16T13:53:45;66.65;;;42.05;;
31674;SDS011;18276;45.520;11.018;2022-10-16T13:56:16;62.72;;;38.97;;
31674;SDS011;18276;45.520;11.018;2022-10-16T13:58:45;68.32;;;41.17;;
31674;SDS011;18276;45.520;11.018;2022-10-16T14:03:40;64.57;;;40.17;;
31674;SDS011;18276;45.520;11.018;2022-10-16T14:06:12;62.13;;;39.15;;
31674;SDS011;18276;45.520;11.018;2022-10-16T14:08:45;67.05;;;39.95;;
31674;SDS011;18276;45.520;11.018;2022-10-16T14:11:23;69.07;;;40.83;;
31674;SDS011;18276;45.520;11.018;2022-10-16T14:13:51;67.57;;;40.75;;
31674;SDS011;18276;45.520;11.018;2022-10-16T14:16:20;70.20;;;42.45;;
31674;SDS011;18276;45.520;11.018;2022-10-16T14:18:57;72.55;;;43.10;;
31674;SDS011;18276;45.520;11.018;2022-10-16T14:21:24;72.88;;;43.17;;
31674;SDS011;18276;45.520;11.018;2022-10-16T14:23:52;74.30;;;41.50;;
31674;SDS011;18276;45.520;11.018;2022-10-16T14:26:21;69.55;;;42.28;;
31674;SDS011;18276;45.520;11.018;2022-10-16T14:29:00;73.88;;;42.55;;
31674;SDS011;18276;45.520;11.018;2022-10-16T14:31:32;72.38;;;43.03;;
31674;SDS011;18276;45.520;11.018;2022-10-16T14:34:00;75.68;;;42.20;;
31674;SDS011;18276;45.520;11.018;2022-10-16T14:36:27;68.72;;;41.28;;
31674;SDS011;18276;45.520;11.018;2022-10-16T14:39:05;74.38;;;42.00;;
31674;SDS011;18276;45.520;11.018;2022-10-16T14:41:43;70.57;;;40.42;;
31674;SDS011;18276;45.520;11.018;2022-10-16T14:44:12;66.00;;;40.83;;
31674;SDS011;18276;45.520;11.018;2022-10-16T14:46:41;77.38;;;42.92;;
31674;SDS011;18276;45.520;11.018;2022-10-16T14:51:37;70.60;;;43.70;;
31674;SDS011;18276;45.520;11.018;2022-10-16T14:54:08;66.95;;;40.78;;
31674;SDS011;18276;45.520;11.018;2022-10-16T14:56:44;68.72;;;40.67;;
31674;SDS011;18276;45.520;11.018;2022-10-16T14:59:26;68.15;;;40.28;;
31674;SDS011;18276;45.520;11.018;2022-10-16T15:02:16;69.20;;;41.22;;
31674;SDS011;18276;45.520;11.018;2022-10-16T15:04:58;71.43;;;40.05;;
31674;SDS011;18276;45.520;11.018;2022-10-16T15:07:48;69.20;;;40.33;;
31674;SDS011;18276;45.520;11.018;2022-10-16T15:10:16;70.65;;;41.63;;
31674;SDS011;18276;45.520;11.018;2022-10-16T15:12:43;70.43;;;41.72;;
31674;SDS011;18276;45.520;11.018;2022-10-16T15:17:50;71.15;;;42.67;;
31674;SDS011;18276;45.520;11.018;2022-10-16T15:20:19;75.90;;;41.80;;
31674;SDS011;18276;45.520;11.018;2022-10-16T15:22:46;74.43;;;42.30;;
31674;SDS011;18276;45.520;11.018;2022-10-16T15:28:05;68.80;;;41.50;;
31674;SDS011;18276;45.520;11.018;2022-10-16T15:30:34;75.13;;;40.95;;
31674;SDS011;18276;45.520;11.018;2022-10-16T15:33:02;70.97;;;41.50;;
31674;SDS011;18276;45.520;11.018;2022-10-16T15:35:30;68.85;;;41.05;;
31674;SDS011;18276;45.520;11.018;2022-10-16T15:37:57;71.25;;;40.22;;
31674;SDS011;18276;45.520;11.018;2022-10-16T15:40:24;73.47;;;41.55;;
31674;SDS011;18276;45.520;11.018;2022-10-16T15:42:53;71.43;;;39.63;;
31674;SDS011;18276;45.520;11.018;2022-10-16T15:45:21;65.97;;;39.65;;
31674;SDS011;18276;45.520;11.018;2022-10-16T15:47:48;76.85;;;41.83;;
31674;SDS011;18276;45.520;11.018;2022-10-16T15:50:15;82.25;;;42.22;;
31674;SDS011;18276;45.520;11.018;2022-10-16T15:52:42;71.15;;;41.75;;
31674;SDS011;18276;45.520;11.018;2022-10-16T15:55:10;67.97;;;41.05;;
31674;SDS011;18276;45.520;11.018;2022-10-16T15:57:39;73.10;;;40.28;;
31674;SDS011;18276;45.520;11.018;2022-10-16T16:00:10;74.13;;;40.00;;
31674;SDS011;18276;45.520;11.018;2022-10-16T16:02:40;68.10;;;37.42;;
31674;SDS011;18276;45.520;11.018;2022-10-16T16:05:09;66.88;;;37.85;;
31674;SDS011;18276;45.520;11.018;2022-10-16T16:07:37;62.03;;;37.35;;
31674;SDS011;18276;45.520;11.018;2022-10-16T16:10:06;64.20;;;37.38;;
31674;SDS011;18276;45.520;11.018;2022-10-16T16:12:35;66.35;;;36.83;;
31674;SDS011;18276;45.520;11.018;2022-10-16T16:15:03;67.55;;;36.03;;
31674;SDS011;18276;45.520;11.018;2022-10-16T16:17:32;58.45;;;34.63;;
31674;SDS011;18276;45.520;11.018;2022-10-16T16:20:00;68.80;;;37.60;;
31674;SDS011;18276;45.520;11.018;2022-10-16T16:22:27;71.28;;;38.60;;
31674;SDS011;18276;45.520;11.018;2022-10-16T16:24:55;65.25;;;37.47;;
31674;SDS011;18276;45.520;11.018;2022-10-16T16:27:22;67.43;;;36.85;;
31674;SDS011;18276;45.520;11.018;2022-10-16T16:29:52;62.70;;;37.97;;
31674;SDS011;18276;45.520;11.018;2022-10-16T16:32:19;67.38;;;37.60;;
31674;SDS011;18276;45.520;11.018;2022-10-16T16:34:46;68.78;;;38.70;;
31674;SDS011;18276;45.520;11.018;2022-10-16T16:37:13;69.32;;;38.78;;
31674;SDS011;18276;45.520;11.018;2022-10-16T16:39:40;65.25;;;36.70;;
31674;SDS011;18276;45.520;11.018;2022-10-16T16:42:07;63.00;;;36.60;;